createdAt,value
2023-05-05T00:00:04.146Z,7.81
2023-05-05T00:03:05.776Z,7.79
2023-05-05T00:06:08.189Z,7.80
2023-05-05T00:09:09.767Z,7.81
2023-05-05T00:12:11.364Z,7.80
2023-05-05T00:15:12.953Z,7.80
2023-05-05T00:18:17.591Z,7.80
2023-05-05T00:21:19.183Z,7.78
2023-05-05T00:24:20.733Z,7.75
2023-05-05T00:27:22.260Z,7.74
2023-05-05T00:30:24.374Z,7.70
2023-05-05T00:33:25.964Z,7.67
2023-05-05T00:36:28.545Z,7.65
2023-05-05T00:39:30.612Z,7.62
2023-05-05T00:42:43.851Z,7.61
2023-05-05T00:45:47.927Z,7.57
2023-05-05T00:48:50.450Z,7.54
2023-05-05T00:51:52.192Z,7.52
2023-05-05T00:54:54.006Z,7.50
2023-05-05T00:57:56.928Z,7.47
2023-05-05T01:00:58.511Z,7.44
2023-05-05T01:04:00.195Z,7.41
2023-05-05T01:07:19.589Z,7.40
2023-05-05T01:10:38.415Z,7.38
2023-05-05T01:13:52.665Z,7.33
2023-05-05T01:16:57.963Z,7.31
2023-05-05T01:20:05.084Z,7.27
2023-05-05T01:23:08.614Z,7.25
2023-05-05T01:27:01.053Z,7.21
2023-05-05T01:30:18.342Z,7.17
2023-05-05T01:33:26.157Z,7.13
2023-05-05T01:36:37.265Z,7.09
2023-05-05T01:39:41.331Z,7.07
2023-05-05T01:42:44.035Z,7.04
2023-05-05T01:45:47.243Z,7.03
2023-05-05T01:48:50.784Z,6.99
2023-05-05T01:51:53.413Z,6.97
2023-05-05T01:54:57.589Z,6.95
2023-05-05T01:58:01.259Z,6.91
2023-05-05T02:01:04.063Z,6.87
2023-05-05T02:04:09.763Z,6.86
2023-05-05T02:07:13.074Z,6.83
2023-05-05T02:10:15.246Z,6.81
2023-05-05T02:13:18.909Z,6.76
2023-05-05T02:16:22.767Z,6.73
2023-05-05T02:19:38.873Z,6.68
2023-05-05T02:22:41.074Z,6.65
2023-05-05T02:25:49.143Z,6.61
2023-05-05T02:29:30.733Z,6.59
2023-05-05T02:32:36.118Z,6.56
2023-05-05T02:35:42.145Z,6.54
2023-05-05T02:38:46.376Z,6.51
2023-05-05T02:41:51.287Z,6.49
2023-05-05T02:44:55.328Z,6.46
2023-05-05T02:47:57.015Z,6.44
2023-05-05T02:50:58.522Z,6.44
2023-05-05T02:54:00.939Z,6.40
2023-05-05T02:57:04.004Z,6.39
2023-05-05T03:00:09.602Z,6.36
2023-05-05T03:03:31.014Z,6.33
2023-05-05T03:06:39.342Z,6.29
2023-05-05T03:09:45.839Z,6.27
2023-05-05T03:12:55.810Z,6.23
2023-05-05T03:15:58.696Z,6.21
2023-05-05T03:19:02.605Z,6.18
2023-05-05T03:22:05.014Z,6.16
2023-05-05T03:25:06.856Z,6.13
2023-05-05T03:28:08.436Z,6.10
2023-05-05T03:31:10.329Z,6.08
2023-05-05T03:34:11.911Z,6.04
2023-05-05T03:37:13.435Z,6.01
2023-05-05T03:40:15.074Z,5.98
2023-05-05T03:43:16.851Z,5.97
2023-05-05T03:46:18.519Z,5.96
2023-05-05T03:49:20.135Z,5.92
2023-05-05T03:52:21.704Z,5.91
2023-05-05T03:55:23.233Z,5.92
2023-05-05T03:58:24.855Z,5.92
2023-05-05T04:01:26.467Z,5.92
2023-05-05T04:04:28.172Z,5.91
2023-05-05T04:07:29.889Z,5.91
2023-05-05T04:10:31.598Z,5.91
2023-05-05T04:13:33.185Z,5.91
2023-05-05T04:16:34.745Z,5.92
2023-05-05T04:19:36.295Z,5.95
2023-05-05T04:22:37.841Z,5.96
2023-05-05T04:25:39.396Z,5.98
2023-05-05T04:28:42.063Z,5.99
2023-05-05T04:31:44.172Z,6.02
2023-05-05T04:34:45.792Z,6.03
2023-05-05T04:37:47.374Z,6.05
2023-05-05T04:40:48.913Z,6.07
2023-05-05T04:43:50.521Z,6.10
2023-05-05T04:46:52.066Z,6.12
2023-05-05T04:49:56.720Z,6.14
2023-05-05T04:52:58.245Z,6.16
2023-05-05T04:56:01.345Z,6.19
2023-05-05T04:59:02.919Z,6.21
2023-05-05T05:02:04.618Z,6.24
2023-05-05T05:05:06.813Z,6.26
2023-05-05T05:08:08.359Z,6.27
2023-05-05T05:11:09.980Z,6.29
2023-05-05T05:14:11.507Z,6.32
2023-05-05T05:17:13.176Z,6.35
2023-05-05T05:20:14.780Z,6.36
2023-05-05T05:23:16.338Z,6.38
2023-05-05T05:26:17.959Z,6.43
2023-05-05T05:29:20.529Z,6.44
2023-05-05T05:32:22.429Z,6.45
2023-05-05T05:35:24.005Z,6.45
2023-05-05T05:38:25.613Z,6.46
2023-05-05T05:41:27.092Z,6.51
2023-05-05T05:44:28.637Z,6.64
2023-05-05T05:47:30.240Z,6.94
2023-05-05T05:50:31.818Z,7.06
2023-05-05T05:53:33.684Z,7.14
2023-05-05T05:56:35.300Z,7.23
2023-05-05T05:59:36.870Z,7.32
2023-05-05T06:02:38.860Z,7.45
2023-05-05T06:05:40.522Z,7.55
2023-05-05T06:08:42.079Z,7.64
2023-05-05T06:11:43.646Z,7.70
2023-05-05T06:14:45.207Z,7.77
2023-05-05T06:17:46.856Z,7.79
2023-05-05T06:20:52.466Z,7.82
2023-05-05T06:23:54.215Z,7.82
2023-05-05T06:26:55.763Z,7.83
2023-05-05T06:29:57.368Z,7.84
2023-05-05T06:32:59.048Z,7.86
2023-05-05T06:36:00.619Z,7.89
2023-05-05T06:39:02.134Z,7.93
2023-05-05T06:42:04.340Z,7.94
2023-05-05T06:45:06.407Z,7.94
2023-05-05T06:48:08.418Z,7.95
2023-05-05T06:51:10.119Z,7.95
2023-05-05T06:54:11.695Z,7.96
2023-05-05T06:57:13.265Z,7.99
2023-05-05T07:00:16.893Z,8.00
2023-05-05T07:03:18.739Z,8.05
2023-05-05T07:06:20.413Z,8.28
2023-05-05T07:09:21.993Z,8.44
2023-05-05T07:12:23.809Z,8.50
2023-05-05T07:15:29.350Z,8.55
2023-05-05T07:18:31.356Z,8.57
2023-05-05T07:21:34.155Z,8.62
2023-05-05T07:24:35.725Z,8.67
2023-05-05T07:27:37.690Z,8.67
2023-05-05T07:30:39.239Z,8.62
2023-05-05T07:33:40.818Z,8.58
2023-05-05T07:36:42.601Z,8.55
2023-05-05T07:39:44.207Z,8.52
2023-05-05T07:42:47.481Z,8.50
2023-05-05T07:45:49.077Z,8.49
2023-05-05T07:48:50.640Z,8.49
2023-05-05T07:51:52.974Z,8.51
2023-05-05T07:54:54.501Z,8.54
2023-05-05T07:57:56.069Z,8.57
2023-05-05T08:00:57.696Z,8.61
2023-05-05T08:03:59.511Z,8.66
2023-05-05T08:07:01.122Z,8.73
2023-05-05T08:10:02.701Z,8.78
2023-05-05T08:13:04.401Z,8.83
2023-05-05T08:16:06.470Z,8.87
2023-05-05T08:19:17.611Z,8.88
2023-05-05T08:22:23.110Z,8.90
2023-05-05T08:25:27.452Z,8.94
2023-05-05T08:28:30.033Z,9.00
2023-05-05T08:31:39.742Z,9.08
2023-05-05T08:34:41.330Z,9.16
2023-05-05T08:37:42.982Z,9.22
2023-05-05T08:40:44.962Z,9.28
2023-05-05T08:43:48.203Z,9.32
2023-05-05T08:46:50.577Z,9.37
2023-05-05T08:49:53.904Z,9.42
2023-05-05T08:53:15.810Z,9.49
2023-05-05T08:56:19.413Z,9.57
2023-05-05T08:59:25.129Z,9.65
2023-05-05T09:02:29.920Z,9.76
2023-05-05T09:05:31.880Z,9.88
2023-05-05T09:08:34.168Z,10.02
2023-05-05T09:11:37.541Z,10.15
2023-05-05T09:14:39.112Z,10.26
2023-05-05T09:17:41.905Z,10.38
2023-05-05T09:20:43.495Z,10.52
2023-05-05T09:24:09.439Z,10.66
2023-05-05T09:27:31.661Z,10.77
2023-05-05T09:30:34.747Z,10.83
2023-05-05T09:33:36.504Z,10.89
2023-05-05T09:36:48.878Z,10.93
2023-05-05T09:39:54.729Z,10.97
2023-05-05T09:43:01.864Z,11.07
2023-05-05T09:46:08.216Z,11.14
2023-05-05T09:49:20.338Z,11.22
2023-05-05T09:52:21.938Z,11.31
2023-05-05T09:55:24.272Z,11.37
2023-05-05T09:58:30.909Z,11.53
2023-05-05T10:01:32.631Z,11.71
2023-05-05T10:04:34.275Z,11.91
2023-05-05T10:07:37.130Z,12.09
2023-05-05T10:10:51.534Z,12.22
2023-05-05T10:13:53.557Z,12.34
2023-05-05T10:16:55.654Z,12.45
2023-05-05T10:19:59.847Z,12.60
2023-05-05T10:23:05.077Z,12.78
2023-05-05T10:26:10.314Z,12.95
2023-05-05T10:29:22.681Z,13.10
2023-05-05T10:35:40.283Z,13.38
2023-05-05T10:38:43.526Z,13.56
2023-05-05T10:41:46.313Z,13.75
2023-05-05T10:44:49.145Z,13.90
2023-05-05T10:47:51.849Z,14.02
2023-05-05T10:51:27.471Z,14.13
2023-05-05T10:54:47.838Z,14.21
2023-05-05T10:57:53.328Z,14.26
2023-05-05T11:00:54.955Z,14.30
2023-05-05T11:04:18.266Z,14.32
2023-05-05T11:07:23.841Z,14.37
2023-05-05T11:10:26.403Z,14.46
2023-05-05T11:13:28.403Z,14.57
2023-05-05T11:16:49.881Z,14.58
2023-05-05T11:19:52.544Z,14.64
2023-05-05T11:23:03.252Z,14.73
2023-05-05T11:26:04.948Z,14.75
2023-05-05T11:29:06.662Z,14.73
2023-05-05T11:32:12.775Z,14.75
2023-05-05T11:35:15.412Z,14.76
2023-05-05T11:38:20.942Z,14.78
2023-05-05T11:41:34.374Z,14.82
2023-05-05T11:44:36.214Z,14.84
2023-05-05T11:47:37.929Z,14.87
2023-05-05T11:50:40.238Z,14.89
2023-05-05T11:53:46.709Z,14.94
2023-05-05T11:56:54.909Z,15.00
2023-05-05T11:59:59.222Z,15.06
2023-05-05T12:03:01.128Z,15.11
2023-05-05T12:06:06.841Z,15.17
2023-05-05T12:09:16.039Z,15.27
2023-05-05T12:12:18.830Z,15.33
2023-05-05T12:15:31.068Z,15.44
2023-05-05T12:18:32.720Z,15.51
2023-05-05T12:21:35.407Z,15.61
2023-05-05T12:24:37.017Z,15.74
2023-05-05T12:27:38.981Z,15.83
2023-05-05T12:30:41.208Z,15.95
2023-05-05T12:33:43.600Z,16.04
2023-05-05T12:36:45.428Z,16.10
2023-05-05T12:39:47.118Z,16.20
2023-05-05T12:42:49.246Z,16.28
2023-05-05T12:46:10.858Z,16.37
2023-05-05T12:49:12.827Z,16.34
2023-05-05T12:52:16.331Z,16.35
2023-05-05T12:55:19.749Z,16.47
2023-05-05T12:58:21.661Z,16.58
2023-05-05T13:01:23.224Z,16.67
2023-05-05T13:04:26.328Z,16.77
2023-05-05T13:07:27.888Z,16.84
2023-05-05T13:10:31.228Z,16.85
2023-05-05T13:13:32.835Z,16.85
2023-05-05T13:16:34.518Z,16.83
2023-05-05T13:19:41.809Z,16.83
2023-05-05T13:22:43.413Z,16.92
2023-05-05T13:25:45.177Z,16.93
2023-05-05T13:28:46.871Z,16.89
2023-05-05T13:31:48.855Z,16.83
2023-05-05T13:34:50.928Z,16.84
2023-05-05T13:37:52.471Z,16.83
2023-05-05T13:40:54.120Z,16.86
2023-05-05T13:43:56.584Z,16.84
2023-05-05T13:46:58.220Z,16.84
2023-05-05T13:49:59.784Z,16.84
2023-05-05T13:53:01.442Z,16.82
2023-05-05T13:59:04.928Z,16.69
2023-05-05T14:02:07.735Z,16.63
2023-05-05T14:05:10.133Z,16.57
2023-05-05T14:08:13.228Z,16.51
2023-05-05T14:11:17.140Z,16.47
2023-05-05T14:14:19.693Z,16.42
2023-05-05T14:17:21.977Z,16.47
2023-05-05T14:20:23.826Z,16.47
2023-05-05T14:23:25.405Z,16.46
2023-05-05T14:26:27.576Z,16.45
2023-05-05T14:29:29.089Z,16.45
2023-05-05T14:32:30.932Z,16.47
2023-05-05T14:35:32.570Z,16.47
2023-05-05T14:38:34.263Z,16.46
2023-05-05T14:41:35.953Z,16.45
2023-05-05T14:44:37.488Z,16.45
2023-05-05T14:47:39.078Z,16.43
2023-05-05T14:50:42.273Z,16.44
2023-05-05T14:53:43.886Z,16.48
2023-05-05T14:56:45.491Z,16.50
2023-05-05T14:59:51.253Z,16.54
2023-05-05T15:02:52.826Z,16.59
2023-05-05T15:05:54.457Z,16.61
2023-05-05T15:08:56.027Z,16.61
2023-05-05T15:11:57.592Z,16.56
2023-05-05T15:14:59.105Z,16.50
2023-05-05T15:18:00.689Z,16.44
2023-05-05T15:21:02.297Z,16.35
2023-05-05T15:24:04.924Z,16.30
2023-05-05T15:27:06.698Z,16.24
2023-05-05T15:30:08.821Z,16.23
2023-05-05T15:33:10.420Z,16.22
2023-05-05T15:36:12.352Z,16.21
2023-05-05T15:39:13.872Z,16.18
2023-05-05T15:42:15.606Z,16.14
2023-05-05T15:45:17.531Z,16.08
2023-05-05T15:48:19.067Z,16.05
2023-05-05T15:51:20.671Z,16.01
2023-05-05T15:54:22.485Z,15.97
2023-05-05T15:57:24.146Z,15.94
2023-05-05T16:00:25.824Z,15.90
2023-05-05T16:03:27.569Z,15.87
2023-05-05T16:06:29.512Z,15.83
2023-05-05T16:09:31.059Z,15.76
2023-05-05T16:12:32.645Z,15.71
2023-05-05T16:15:35.694Z,15.75
2023-05-05T16:18:37.263Z,15.74
2023-05-05T16:21:38.874Z,15.69
2023-05-05T16:24:41.973Z,15.61
2023-05-05T16:27:44.786Z,15.54
2023-05-05T16:30:46.382Z,15.47
2023-05-05T16:33:48.018Z,15.41
2023-05-05T16:36:49.552Z,15.33
2023-05-05T16:39:51.107Z,15.26
2023-05-05T16:42:52.772Z,15.19
2023-05-05T16:45:54.343Z,15.12
2023-05-05T16:48:56.364Z,15.08
2023-05-05T16:51:58.308Z,15.06
2023-05-05T16:54:59.921Z,15.04
2023-05-05T16:58:01.608Z,15.05
2023-05-05T17:01:04.119Z,15.07
2023-05-05T17:04:05.723Z,15.01
2023-05-05T17:07:07.581Z,14.89
2023-05-05T17:10:09.966Z,14.74
2023-05-05T17:13:12.896Z,14.57
2023-05-05T17:16:14.616Z,14.34
2023-05-05T17:19:16.734Z,14.19
2023-05-05T17:22:18.276Z,14.07
2023-05-05T17:25:20.077Z,13.96
2023-05-05T17:28:21.657Z,13.85
2023-05-05T17:31:23.199Z,13.82
2023-05-05T17:34:24.817Z,13.80
2023-05-05T17:37:26.389Z,13.75
2023-05-05T17:40:28.137Z,13.71
2023-05-05T17:43:29.789Z,13.68
2023-05-05T17:46:31.760Z,13.67
2023-05-05T17:49:34.813Z,13.66
2023-05-05T17:52:36.694Z,13.69
2023-05-05T17:55:38.274Z,13.70
2023-05-05T17:58:39.844Z,13.72
2023-05-05T18:01:41.547Z,13.71
2023-05-05T18:04:43.460Z,13.71
2023-05-05T18:07:45.014Z,13.70
2023-05-05T18:10:46.725Z,13.71
2023-05-05T18:13:48.248Z,13.70
2023-05-05T18:16:52.324Z,13.70
2023-05-05T18:19:54.005Z,13.69
2023-05-05T18:22:55.598Z,13.69
2023-05-05T18:25:57.101Z,13.67
2023-05-05T18:28:58.626Z,13.65
2023-05-05T18:32:00.190Z,13.63
2023-05-05T18:35:01.797Z,13.53
2023-05-05T18:38:03.840Z,13.44
2023-05-05T18:41:05.435Z,13.40
2023-05-05T18:44:07.055Z,13.35
2023-05-05T18:47:08.897Z,13.21
2023-05-05T18:50:10.614Z,13.11
2023-05-05T18:53:13.656Z,13.04
2023-05-05T18:56:15.250Z,13.02
2023-05-05T18:59:16.813Z,13.00
2023-05-05T19:02:18.722Z,12.93
2023-05-05T19:05:20.350Z,12.85
2023-05-05T19:08:22.578Z,12.79
2023-05-05T19:11:24.423Z,12.69
2023-05-05T19:14:26.068Z,12.53
2023-05-05T19:17:27.761Z,12.32
2023-05-05T19:20:31.723Z,12.16
2023-05-05T19:23:33.443Z,12.03
2023-05-05T19:26:35.387Z,11.91
2023-05-05T19:29:36.958Z,11.80
2023-05-05T19:32:38.560Z,11.67
2023-05-05T19:35:40.100Z,11.56
2023-05-05T19:38:44.514Z,11.46
2023-05-05T19:41:46.201Z,11.36
2023-05-05T19:44:47.741Z,11.25
2023-05-05T19:47:49.289Z,11.12
2023-05-05T19:50:51.172Z,11.01
2023-05-05T19:53:53.660Z,10.93
2023-05-05T19:56:57.180Z,10.88
2023-05-05T19:59:58.970Z,10.85
2023-05-05T20:03:01.310Z,10.84
2023-05-05T20:06:03.071Z,10.83
2023-05-05T20:09:05.219Z,10.82
2023-05-05T20:12:07.148Z,10.84
2023-05-05T20:15:10.073Z,10.86
2023-05-05T20:18:11.591Z,10.87
2023-05-05T20:21:13.406Z,10.88
2023-05-05T20:24:15.253Z,10.90
2023-05-05T20:27:16.875Z,10.90
2023-05-05T20:30:18.406Z,10.89
2023-05-05T20:33:20.165Z,10.87
2023-05-05T20:36:22.930Z,10.88
2023-05-05T20:39:25.035Z,10.86
2023-05-05T20:42:27.804Z,10.87
2023-05-05T20:45:31.762Z,10.87
2023-05-05T20:48:33.318Z,10.86
2023-05-05T20:51:35.159Z,10.87
2023-05-05T20:54:36.997Z,10.86
2023-05-05T20:57:38.723Z,10.93
2023-05-05T21:00:40.356Z,11.28
2023-05-05T21:03:41.929Z,11.37
2023-05-05T21:06:44.891Z,11.41
2023-05-05T21:09:46.820Z,11.43
2023-05-05T21:12:48.508Z,11.45
2023-05-05T21:15:50.489Z,11.47
2023-05-05T21:18:52.078Z,11.51
2023-05-05T21:21:53.797Z,11.56
2023-05-05T21:25:13.814Z,11.65
2023-05-05T21:28:15.399Z,11.71
2023-05-05T21:34:21.426Z,11.76
2023-05-05T21:37:22.941Z,11.73
2023-05-05T21:40:24.519Z,11.73
2023-05-05T21:43:26.715Z,11.74
2023-05-05T21:46:28.444Z,11.78
2023-05-05T21:49:30.538Z,11.89
2023-05-05T21:52:32.282Z,12.29
2023-05-05T21:55:33.840Z,12.61
2023-05-05T21:58:35.481Z,12.58
2023-05-05T22:01:37.232Z,12.44
2023-05-05T22:04:38.856Z,12.30
2023-05-05T22:07:40.752Z,12.18
2023-05-05T22:10:42.347Z,12.09
2023-05-05T22:13:44.055Z,12.03
2023-05-05T22:16:45.891Z,12.17
2023-05-05T22:19:47.505Z,12.12
2023-05-05T22:22:49.054Z,12.10
2023-05-05T22:25:50.608Z,12.05
2023-05-05T22:28:52.132Z,11.95
2023-05-05T22:31:53.814Z,11.90
2023-05-05T22:34:55.473Z,11.88
2023-05-05T22:37:57.038Z,11.89
2023-05-05T22:40:58.546Z,11.87
2023-05-05T22:44:00.208Z,11.80
2023-05-05T22:47:01.784Z,11.76
2023-05-05T22:50:03.520Z,11.75
2023-05-05T22:53:05.076Z,11.77
2023-05-05T22:56:06.740Z,11.78
2023-05-05T22:59:08.355Z,11.80
2023-05-05T23:02:10.255Z,11.80
2023-05-05T23:05:12.057Z,11.80
2023-05-05T23:08:13.714Z,11.80
2023-05-05T23:11:15.577Z,11.81
2023-05-05T23:14:19.398Z,11.80
2023-05-05T23:17:21.156Z,11.81
2023-05-05T23:20:22.828Z,11.82
2023-05-05T23:23:24.661Z,11.82
2023-05-05T23:26:26.305Z,11.81
2023-05-05T23:29:28.286Z,11.78
2023-05-05T23:32:29.839Z,11.74
2023-05-05T23:35:31.432Z,11.72
2023-05-05T23:38:32.965Z,11.70
2023-05-05T23:41:34.535Z,11.61
2023-05-05T23:44:36.063Z,11.48
2023-05-05T23:47:38.104Z,11.32
2023-05-05T23:50:39.680Z,11.16
2023-05-05T23:53:41.272Z,11.02
2023-05-05T23:56:42.894Z,10.87
2023-05-05T23:59:44.760Z,10.72
